Time;durP1;ratioP1;P1;durP2;ratioP2;P2;SDS_P1;SDS_P2;PMS_P1;PMS_P2;Temp;Humidity;BMP_temperature;BMP_pressure;BME280_temperature;BME280_humidity;BME280_pressure;Samples;Min_cycle;Max_cycle;Signal;HPM_P1;HPM_P2
2021/08/09 00:02:05;;;;;;;7.50;2.20;;;20.60;99.90;;;;;;5092804;28;20024;-76
2021/08/09 00:04:34;;;;;;;7.97;2.75;;;20.60;99.90;;;;;;5092904;28;20070;-76
2021/08/09 00:07:00;;;;;;;8.73;2.60;;;20.60;99.90;;;;;;5091517;28;20024;-76
2021/08/09 00:09:26;;;;;;;16.05;3.33;;;20.60;99.90;;;;;;5092623;28;20032;-76
2021/08/09 00:11:52;;;;;;;9.45;2.22;;;20.60;99.90;;;;;;5092519;28;20405;-76
2021/08/09 00:14:17;;;;;;;6.78;2.13;;;20.60;99.90;;;;;;5092596;28;20081;-77
2021/08/09 00:16:43;;;;;;;5.30;2.55;;;20.60;99.90;;;;;;5091120;28;20123;-76
2021/08/09 00:19:09;;;;;;;5.63;2.50;;;20.50;99.90;;;;;;5092698;28;20028;-76
2021/08/09 00:21:35;;;;;;;6.97;2.40;;;20.50;99.90;;;;;;5091331;28;20067;-75
2021/08/09 00:24:01;;;;;;;7.40;2.58;;;20.50;99.90;;;;;;5090756;28;20040;-76
2021/08/09 00:26:29;;;;;;;5.60;3.05;;;20.50;99.90;;;;;;5092424;28;20036;-76
2021/08/09 00:28:55;;;;;;;4.57;2.10;;;20.40;99.90;;;;;;5092371;28;20499;-76
2021/08/09 00:31:21;;;;;;;9.70;2.85;;;20.40;99.90;;;;;;5091207;28;20047;-76
2021/08/09 00:33:46;;;;;;;7.18;2.90;;;20.40;99.90;;;;;;5091977;28;20051;-76
2021/08/09 00:36:12;;;;;;;6.68;2.35;;;20.30;99.90;;;;;;5092164;28;20020;-75
2021/08/09 00:38:37;;;;;;;7.43;2.38;;;20.20;99.90;;;;;;5090921;28;20087;-75
2021/08/09 00:41:03;;;;;;;7.07;2.72;;;20.20;99.90;;;;;;5091036;28;20020;-76
2021/08/09 00:43:29;;;;;;;7.13;3.00;;;20.10;99.90;;;;;;5091908;28;20101;-76
2021/08/09 00:45:57;;;;;;;9.75;2.60;;;20.10;99.90;;;;;;5089569;28;20016;-76
2021/08/09 00:48:24;;;;;;;11.98;2.83;;;20.00;99.90;;;;;;5091953;28;20035;-76
2021/08/09 00:50:50;;;;;;;12.88;3.90;;;20.00;99.90;;;;;;5091900;28;20016;-76
2021/08/09 00:53:16;;;;;;;6.07;3.17;;;20.00;99.90;;;;;;5090540;28;20054;-76
2021/08/09 00:55:42;;;;;;;4.72;2.70;;;20.00;99.90;;;;;;5090551;28;20070;-76
2021/08/09 00:58:09;;;;;;;4.40;2.28;;;20.00;99.90;;;;;;5090414;28;20028;-76
2021/08/09 01:00:35;;;;;;;4.22;2.40;;;20.00;99.90;;;;;;5091933;28;20020;-75
2021/08/09 01:03:01;;;;;;;4.97;2.33;;;20.00;99.90;;;;;;5090365;28;20537;-76
2021/08/09 01:05:26;;;;;;;10.35;2.70;;;20.00;99.90;;;;;;5091571;28;20638;-76
2021/08/09 01:08:22;;;;;;;6.63;2.58;;;20.00;99.90;;;;;;5091461;28;20036;-76
2021/08/09 01:11:15;;;;;;;7.45;2.22;;;20.00;99.90;;;;;;5090153;28;20030;-76
2021/08/09 01:13:44;;;;;;;7.78;2.03;;;20.00;99.90;;;;;;5089839;28;20054;-76
2021/08/09 01:16:12;;;;;;;5.95;2.83;;;20.00;99.90;;;;;;5091379;28;20095;-76
2021/08/09 01:18:40;;;;;;;6.38;2.83;;;20.00;99.90;;;;;;5090325;28;20478;-76
2021/08/09 01:21:07;;;;;;;6.47;3.45;;;20.00;99.90;;;;;;5091469;28;20369;-76
2021/08/09 01:23:42;;;;;;;4.55;2.42;;;19.90;99.90;;;;;;5091104;28;20040;-76
2021/08/09 01:26:13;;;;;;;5.05;2.80;;;19.90;99.90;;;;;;5091232;28;20484;-76
2021/08/09 01:28:39;;;;;;;4.00;2.47;;;19.80;99.90;;;;;;5091315;28;20059;-76
2021/08/09 01:31:07;;;;;;;5.38;2.40;;;19.80;99.90;;;;;;5089826;28;20555;-77
2021/08/09 01:33:35;;;;;;;2.90;2.08;;;19.70;99.90;;;;;;5090863;28;20173;-75
2021/08/09 01:36:03;;;;;;;7.28;2.28;;;19.70;99.90;;;;;;5090648;28;20073;-76
2021/08/09 01:38:29;;;;;;;7.03;2.72;;;19.70;99.90;;;;;;5089850;28;20182;-77
2021/08/09 01:40:56;;;;;;;3.90;2.10;;;19.70;99.90;;;;;;5089637;28;20036;-76
2021/08/09 01:43:24;;;;;;;4.55;2.60;;;19.70;99.90;;;;;;5091047;28;20034;-77
2021/08/09 01:45:53;;;;;;;10.13;2.88;;;19.70;99.90;;;;;;5090813;28;20020;-76
2021/08/09 01:48:19;;;;;;;4.82;2.50;;;19.70;99.90;;;;;;5089350;28;20024;-77
2021/08/09 01:50:45;;;;;;;7.70;2.90;;;19.60;99.90;;;;;;5090772;28;20028;-77
2021/08/09 01:53:12;;;;;;;4.50;2.30;;;19.60;99.90;;;;;;5089497;28;20024;-77
2021/08/09 01:55:39;;;;;;;6.85;2.25;;;19.60;99.90;;;;;;5090576;28;20476;-77
2021/08/09 01:58:05;;;;;;;4.97;2.92;;;19.60;99.90;;;;;;5090403;28;20081;-76
2021/08/09 02:00:31;;;;;;;3.90;2.83;;;19.60;99.90;;;;;;5089307;28;20543;-77
2021/08/09 02:02:58;;;;;;;7.00;2.80;;;19.60;99.90;;;;;;5090671;28;20035;-77
2021/08/09 02:05:25;;;;;;;4.97;2.65;;;19.60;99.90;;;;;;5090629;28;20480;-77
2021/08/09 02:07:51;;;;;;;5.75;2.70;;;19.60;99.90;;;;;;5089188;28;20376;-77
2021/08/09 02:10:23;;;;;;;6.10;3.42;;;19.60;99.90;;;;;;5089770;28;20032;-75
2021/08/09 02:13:16;;;;;;;5.50;2.70;;;19.50;99.90;;;;;;5091286;28;20423;-76
2021/08/09 02:15:41;;;;;;;10.30;3.08;;;19.50;99.90;;;;;;5109658;28;20066;-76
2021/08/09 02:18:35;;;;;;;8.32;2.85;;;19.40;99.90;;;;;;5108488;28;20035;-76
2021/08/09 02:21:05;;;;;;;8.40;2.53;;;19.40;99.90;;;;;;5091123;28;20039;-75
2021/08/09 02:23:44;;;;;;;5.15;3.03;;;19.40;99.90;;;;;;5091520;28;20032;-76
2021/08/09 02:26:12;;;;;;;7.45;3.33;;;19.30;99.90;;;;;;5109766;28;20035;-75
2021/08/09 02:28:43;;;;;;;5.78;2.67;;;19.30;99.90;;;;;;5109273;28;20526;-75
2021/08/09 02:31:11;;;;;;;6.35;3.10;;;19.30;99.90;;;;;;5095577;28;20027;-76
2021/08/09 02:33:37;;;;;;;5.85;2.88;;;19.30;99.90;;;;;;5097359;28;20051;-76
2021/08/09 02:36:04;;;;;;;4.57;2.70;;;19.20;99.90;;;;;;5096483;28;20062;-76
2021/08/09 02:38:31;;;;;;;9.27;2.60;;;19.20;99.90;;;;;;5095682;28;20050;-76
2021/08/09 02:40:58;;;;;;;6.00;2.88;;;19.20;99.90;;;;;;5091415;28;20027;-76
2021/08/09 02:43:25;;;;;;;3.92;2.28;;;19.20;99.90;;;;;;5110434;28;20038;-76
2021/08/09 02:45:53;;;;;;;4.80;2.50;;;19.20;99.90;;;;;;5091833;28;20058;-77
2021/08/09 02:48:20;;;;;;;4.72;2.45;;;19.20;99.90;;;;;;5110472;28;20245;-76
2021/08/09 02:50:47;;;;;;;12.68;2.65;;;19.20;99.90;;;;;;5091880;28;20020;-77
2021/08/09 02:53:17;;;;;;;5.88;2.45;;;19.20;99.90;;;;;;5092047;28;20028;-76
2021/08/09 02:55:46;;;;;;;9.25;2.78;;;19.20;99.90;;;;;;5091832;28;20053;-76
2021/08/09 02:58:12;;;;;;;6.75;2.45;;;19.10;99.90;;;;;;5091948;28;20028;-76
2021/08/09 03:00:38;;;;;;;7.38;2.90;;;19.00;99.90;;;;;;5110402;28;20081;-76
2021/08/09 03:03:04;;;;;;;4.80;2.40;;;19.00;99.90;;;;;;5110248;28;20040;-75
2021/08/09 03:05:32;;;;;;;6.55;2.28;;;18.90;99.90;;;;;;5091819;28;20038;-77
2021/08/09 03:07:59;;;;;;;4.90;2.53;;;18.90;99.90;;;;;;5091827;28;20028;-77
2021/08/09 03:10:25;;;;;;;8.50;3.10;;;18.90;99.90;;;;;;5095189;28;20119;-76
2021/08/09 03:12:57;;;;;;;4.68;2.35;;;18.80;99.90;;;;;;5114079;28;20119;-76
2021/08/09 03:15:24;;;;;;;8.13;2.45;;;18.80;99.90;;;;;;5114223;28;20027;-77
2021/08/09 03:17:49;;;;;;;5.65;2.28;;;18.80;99.90;;;;;;5113812;28;20023;-76
2021/08/09 03:20:15;;;;;;;7.55;1.95;;;18.70;99.90;;;;;;5113828;28;20494;-76
2021/08/09 03:22:41;;;;;;;5.00;2.00;;;18.70;99.90;;;;;;5113717;28;20035;-76
2021/08/09 03:25:07;;;;;;;4.13;1.80;;;18.70;99.90;;;;;;5113679;28;20096;-77
2021/08/09 03:27:33;;;;;;;5.68;1.80;;;18.70;99.90;;;;;;5095469;28;20027;-77
2021/08/09 03:29:58;;;;;;;4.97;1.73;;;18.60;99.90;;;;;;5095251;28;20502;-76
2021/08/09 03:32:24;;;;;;;2.50;1.70;;;18.70;99.90;;;;;;5113589;28;20030;-78
2021/08/09 03:34:50;;;;;;;3.75;2.00;;;18.70;99.90;;;;;;5113704;28;20476;-77
2021/08/09 03:37:15;;;;;;;2.20;1.58;;;18.70;99.90;;;;;;5113678;28;20023;-76
2021/08/09 03:39:41;;;;;;;9.68;1.80;;;18.70;99.90;;;;;;5095496;28;20036;-76
2021/08/09 03:42:06;;;;;;;8.07;2.25;;;18.70;99.90;;;;;;5113387;28;20484;-77
2021/08/09 03:44:32;;;;;;;3.60;1.70;;;18.70;99.90;;;;;;5113500;28;20042;-77
2021/08/09 03:46:58;;;;;;;9.15;2.00;;;18.70;99.90;;;;;;5113448;28;20028;-76
2021/08/09 03:49:23;;;;;;;6.40;1.55;;;18.70;99.90;;;;;;5113223;28;20081;-77
2021/08/09 03:51:49;;;;;;;3.65;0.80;;;18.70;99.90;;;;;;5113264;28;20027;-77
2021/08/09 03:54:15;;;;;;;6.05;1.10;;;18.70;99.90;;;;;;5113144;28;20027;-77
2021/08/09 03:56:40;;;;;;;5.63;1.20;;;18.70;99.90;;;;;;5094779;28;20028;-76
2021/08/09 03:59:06;;;;;;;5.72;0.90;;;18.80;99.90;;;;;;5095013;28;20024;-76
2021/08/09 04:01:38;;;;;;;8.60;1.10;;;18.80;99.90;;;;;;5113285;28;20031;-76
2021/08/09 04:04:04;;;;;;;4.60;1.20;;;18.80;99.90;;;;;;5112987;28;20376;-76
2021/08/09 04:06:30;;;;;;;4.43;0.70;;;18.80;99.90;;;;;;5094760;28;20020;-76
2021/08/09 04:08:55;;;;;;;5.43;1.05;;;18.80;99.90;;;;;;5094755;28;20030;-76
2021/08/09 04:11:21;;;;;;;4.15;0.70;;;18.80;99.90;;;;;;5112994;28;20487;-76
2021/08/09 04:13:47;;;;;;;4.32;1.10;;;18.80;99.90;;;;;;5112841;28;20487;-76
2021/08/09 04:16:12;;;;;;;7.93;0.93;;;18.90;99.90;;;;;;5094419;28;20114;-77
2021/08/09 04:18:39;;;;;;;5.30;0.98;;;19.10;99.90;;;;;;5112830;28;20027;-76
2021/08/09 04:21:05;;;;;;;8.05;0.90;;;19.30;99.90;;;;;;5094629;28;20057;-76
2021/08/09 04:23:31;;;;;;;2.22;1.20;;;19.40;99.90;;;;;;5094336;28;20525;-77
2021/08/09 04:25:56;;;;;;;6.63;1.23;;;19.40;99.90;;;;;;5112437;28;20106;-76
2021/08/09 04:28:22;;;;;;;2.08;0.75;;;19.50;99.90;;;;;;5094141;28;20118;-77
2021/08/09 04:30:48;;;;;;;2.75;0.70;;;19.60;99.90;;;;;;5094173;28;20526;-76
2021/08/09 04:33:13;;;;;;;1.45;0.60;;;19.60;99.90;;;;;;5112583;28;20104;-76
2021/08/09 04:35:39;;;;;;;2.53;0.93;;;19.70;99.90;;;;;;5112511;28;20395;-77
2021/08/09 04:38:05;;;;;;;2.33;0.90;;;19.80;99.90;;;;;;5112406;28;20031;-77
2021/08/09 04:40:31;;;;;;;2.58;0.68;;;19.90;99.90;;;;;;5112447;28;20012;-76
2021/08/09 04:42:57;;;;;;;6.22;1.10;;;19.90;99.90;;;;;;5094183;28;20027;-76
2021/08/09 04:45:24;;;;;;;10.07;1.10;;;20.00;99.90;;;;;;5094174;28;20043;-76
2021/08/09 04:47:50;;;;;;;10.57;0.85;;;20.00;99.90;;;;;;5112109;28;20043;-77
2021/08/09 04:50:16;;;;;;;3.47;0.75;;;20.10;99.90;;;;;;5112264;28;20495;-77
2021/08/09 04:52:42;;;;;;;8.35;0.93;;;20.20;99.90;;;;;;5093433;28;20031;-76
2021/08/09 04:55:10;;;;;;;7.22;1.13;;;20.30;99.90;;;;;;5093868;28;20470;-76
2021/08/09 04:57:35;;;;;;;3.92;0.95;;;20.50;99.90;;;;;;5093720;28;20035;-76
2021/08/09 05:00:01;;;;;;;2.92;1.13;;;20.60;99.90;;;;;;5112033;28;20024;-77
2021/08/09 05:02:27;;;;;;;8.55;1.23;;;20.60;99.90;;;;;;5093328;28;20062;-76
2021/08/09 05:04:53;;;;;;;6.65;1.60;;;20.70;99.90;;;;;;5111871;28;20462;-76
2021/08/09 05:07:18;;;;;;;5.18;1.17;;;20.70;99.90;;;;;;5111862;28;20032;-76
2021/08/09 05:09:44;;;;;;;1.63;1.00;;;20.90;99.90;;;;;;5111974;28;20020;-76
2021/08/09 05:12:09;;;;;;;10.45;1.30;;;21.00;99.90;;;;;;5093498;28;20097;-77
2021/08/09 05:14:35;;;;;;;3.78;0.77;;;21.00;99.90;;;;;;5093462;28;20400;-77
2021/08/09 05:17:01;;;;;;;5.40;1.50;;;21.10;99.90;;;;;;5111579;28;20035;-77
2021/08/09 05:19:27;;;;;;;4.88;1.27;;;21.20;99.90;;;;;;5093325;28;20020;-77
2021/08/09 05:21:52;;;;;;;5.70;1.52;;;21.40;99.90;;;;;;5111765;28;20080;-76
2021/08/09 05:24:18;;;;;;;2.78;0.82;;;21.70;99.90;;;;;;5111696;28;20042;-74
2021/08/09 05:26:44;;;;;;;5.47;1.50;;;22.10;99.90;;;;;;5092865;28;20392;-73
2021/08/09 05:29:09;;;;;;;5.80;1.13;;;22.50;99.90;;;;;;5093000;28;20027;-74
2021/08/09 05:31:37;;;;;;;4.22;0.80;;;22.80;99.90;;;;;;5092839;28;20118;-74
2021/08/09 05:34:02;;;;;;;8.48;1.13;;;23.00;98.90;;;;;;5110937;28;20055;-74
2021/08/09 05:36:30;;;;;;;4.47;1.05;;;23.00;97.20;;;;;;5093026;28;20490;-74
2021/08/09 05:38:55;;;;;;;3.80;1.10;;;23.10;96.90;;;;;;5092626;28;20039;-74
2021/08/09 05:41:21;;;;;;;3.20;1.13;;;23.20;97.20;;;;;;5111100;28;20028;-75
2021/08/09 05:43:47;;;;;;;5.82;1.13;;;23.30;95.70;;;;;;5111037;28;20576;-74
2021/08/09 05:46:12;;;;;;;5.35;1.00;;;23.40;94.80;;;;;;5092667;28;20024;-74
2021/08/09 05:48:38;;;;;;;4.22;0.90;;;23.50;94.50;;;;;;5092944;28;20368;-74
2021/08/09 05:51:03;;;;;;;7.55;1.27;;;23.80;94.70;;;;;;5111042;28;20023;-75
2021/08/09 05:53:31;;;;;;;6.35;1.10;;;24.20;94.20;;;;;;5093324;28;20031;-74
2021/08/09 05:55:57;;;;;;;10.35;1.30;;;24.80;92.30;;;;;;5092589;28;20053;-73
2021/08/09 05:58:22;;;;;;;5.18;1.10;;;25.20;91.50;;;;;;5111072;28;20027;-77
2021/08/09 06:00:48;;;;;;;3.90;1.33;;;25.50;91.20;;;;;;5092797;28;20027;-78
2021/08/09 06:03:19;;;;;;;4.38;1.50;;;25.80;90.40;;;;;;5110942;28;20057;-75
2021/08/09 06:05:46;;;;;;;8.07;1.30;;;26.50;87.80;;;;;;5110553;28;20028;-74
2021/08/09 06:08:11;;;;;;;5.05;1.33;;;27.10;84.80;;;;;;5110727;28;20024;-75
2021/08/09 06:10:38;;;;;;;3.42;1.55;;;27.80;80.90;;;;;;5092756;28;20023;-75
2021/08/09 06:13:03;;;;;;;5.95;1.25;;;28.50;77.90;;;;;;5111004;28;20110;-75
2021/08/09 06:15:29;;;;;;;6.55;1.50;;;29.10;73.70;;;;;;5110850;28;20106;-75
2021/08/09 06:17:55;;;;;;;6.63;1.73;;;29.80;69.70;;;;;;5110674;28;20685;-75
2021/08/09 06:20:20;;;;;;;4.43;1.45;;;30.30;66.60;;;;;;5110785;28;20020;-75
2021/08/09 06:22:46;;;;;;;8.48;1.52;;;30.90;63.90;;;;;;5110815;28;20020;-75
2021/08/09 06:25:11;;;;;;;6.35;1.50;;;31.40;62.30;;;;;;5110776;28;20435;-74
2021/08/09 06:27:37;;;;;;;5.35;1.83;;;32.10;59.50;;;;;;5092384;28;20484;-75
2021/08/09 06:30:03;;;;;;;7.68;1.83;;;32.60;56.30;;;;;;5110314;28;20504;-75
2021/08/09 06:32:29;;;;;;;5.97;2.13;;;32.80;56.80;;;;;;5110362;28;20422;-74
2021/08/09 06:34:54;;;;;;;4.75;2.70;;;32.90;56.90;;;;;;5092112;28;20042;-75
2021/08/09 06:37:20;;;;;;;6.60;2.72;;;33.40;56.20;;;;;;5092269;28;20024;-75
2021/08/09 06:39:46;;;;;;;7.43;2.70;;;33.40;56.20;;;;;;5110402;28;20035;-75
2021/08/09 06:42:11;;;;;;;7.65;2.95;;;33.80;54.70;;;;;;5092055;28;20086;-75
2021/08/09 06:44:37;;;;;;;9.02;2.90;;;33.60;55.30;;;;;;5093921;28;20107;-76
2021/08/09 06:47:03;;;;;;;6.22;2.70;;;33.50;55.40;;;;;;5096037;28;20028;-76
2021/08/09 06:49:29;;;;;;;10.43;2.42;;;33.60;54.60;;;;;;5114517;28;20032;-74
2021/08/09 06:51:55;;;;;;;7.35;2.50;;;32.80;57.00;;;;;;5096306;28;20022;-76
2021/08/09 06:54:24;;;;;;;11.10;3.13;;;31.90;58.70;;;;;;5096159;28;20031;-74
2021/08/09 06:56:50;;;;;;;11.50;2.53;;;30.80;61.30;;;;;;5095910;28;20031;-75
2021/08/09 06:59:15;;;;;;;9.65;2.72;;;29.90;65.60;;;;;;5096117;28;20015;-75
2021/08/09 07:01:41;;;;;;;14.95;2.60;;;29.70;66.30;;;;;;5114384;28;20027;-75
2021/08/09 07:04:07;;;;;;;7.00;2.10;;;30.20;65.90;;;;;;5095577;28;20065;-75
2021/08/09 07:06:32;;;;;;;14.05;2.60;;;30.70;63.80;;;;;;5114191;28;20034;-75
2021/08/09 07:09:00;;;;;;;9.15;2.65;;;30.80;62.70;;;;;;5095931;28;20031;-75
2021/08/09 07:11:26;;;;;;;7.63;2.55;;;30.60;62.30;;;;;;5095923;28;20031;-76
2021/08/09 07:13:52;;;;;;;9.52;2.90;;;30.40;60.90;;;;;;5095789;28;20054;-75
2021/08/09 07:16:23;;;;;;;8.40;4.18;;;30.40;61.70;;;;;;5114000;28;20015;-75
2021/08/09 07:18:49;;;;;;;6.72;3.30;;;30.50;61.20;;;;;;5113925;28;20437;-75
2021/08/09 07:21:14;;;;;;;11.13;3.72;;;30.30;62.90;;;;;;5114028;28;20020;-76
2021/08/09 07:23:40;;;;;;;7.13;3.35;;;30.00;64.60;;;;;;5095635;28;20475;-75
2021/08/09 07:26:06;;;;;;;6.38;3.38;;;29.90;63.00;;;;;;5113787;28;20028;-75
2021/08/09 07:28:32;;;;;;;5.40;3.00;;;29.10;64.50;;;;;;5113936;28;20042;-78
2021/08/09 07:30:58;;;;;;;8.25;3.83;;;28.10;67.90;;;;;;5095469;28;20189;-74
2021/08/09 07:33:24;;;;;;;4.28;2.42;;;27.40;71.60;;;;;;5095342;28;20584;-76
2021/08/09 07:35:49;;;;;;;7.45;2.97;;;27.10;73.90;;;;;;5113678;28;20031;-74
2021/08/09 07:38:15;;;;;;;7.97;3.30;;;27.00;74.80;;;;;;5095513;28;20530;-74
2021/08/09 07:40:40;;;;;;;8.20;3.42;;;26.70;76.30;;;;;;5113588;28;20035;-74
2021/08/09 07:43:06;;;;;;;7.30;3.38;;;26.30;78.70;;;;;;5095426;28;20361;-74
2021/08/09 07:45:32;;;;;;;11.40;3.28;;;26.60;81.10;;;;;;5113408;28;20289;-74
2021/08/09 07:47:57;;;;;;;5.53;3.30;;;27.40;79.40;;;;;;5095421;28;20397;-77
2021/08/09 07:50:23;;;;;;;4.68;2.97;;;27.80;76.20;;;;;;5113280;28;20028;-76
2021/08/09 07:52:50;;;;;;;5.50;2.55;;;28.50;74.10;;;;;;5095055;28;20035;-77
2021/08/09 07:55:15;;;;;;;6.13;2.60;;;28.90;71.10;;;;;;5094521;28;20027;-77
2021/08/09 07:57:42;;;;;;;4.85;2.30;;;28.70;68.80;;;;;;5095086;28;20051;-77
2021/08/09 08:00:09;;;;;;;7.78;2.95;;;28.90;69.50;;;;;;5094830;28;20114;-77
2021/08/09 08:02:35;;;;;;;6.65;2.60;;;29.40;69.10;;;;;;5094635;28;20027;-77
2021/08/09 08:05:02;;;;;;;4.38;2.60;;;29.40;67.60;;;;;;5112753;28;20488;-78
2021/08/09 08:07:27;;;;;;;4.88;2.45;;;29.70;65.90;;;;;;5112978;28;20024;-74
2021/08/09 08:09:53;;;;;;;7.80;2.63;;;30.50;64.60;;;;;;5094537;28;20034;-75
2021/08/09 08:12:19;;;;;;;6.65;2.65;;;30.90;62.90;;;;;;5094278;28;20479;-75
2021/08/09 08:14:44;;;;;;;5.85;2.00;;;30.50;61.60;;;;;;5112631;28;20445;-76
2021/08/09 08:17:10;;;;;;;3.08;2.40;;;30.50;62.50;;;;;;5094582;28;20106;-75
2021/08/09 08:19:36;;;;;;;8.35;2.55;;;30.20;63.40;;;;;;5094554;28;20059;-76
2021/08/09 08:22:02;;;;;;;4.20;2.33;;;29.60;64.30;;;;;;5112699;28;20019;-77
2021/08/09 08:24:27;;;;;;;5.07;2.45;;;29.50;64.90;;;;;;5094404;28;20035;-76
2021/08/09 08:26:54;;;;;;;4.57;2.10;;;29.30;65.30;;;;;;5094379;28;20487;-76
2021/08/09 08:29:20;;;;;;;4.18;1.95;;;28.90;66.10;;;;;;5094350;28;20039;-76
2021/08/09 08:31:45;;;;;;;4.32;1.80;;;29.00;67.20;;;;;;5094245;28;20031;-77
2021/08/09 08:34:11;;;;;;;6.95;2.10;;;29.50;65.90;;;;;;5094087;28;20075;-77
2021/08/09 08:36:37;;;;;;;9.45;2.92;;;29.50;65.80;;;;;;5094143;28;20044;-77
2021/08/09 08:39:03;;;;;;;7.35;2.72;;;29.90;63.80;;;;;;5112433;28;20036;-77
2021/08/09 08:41:30;;;;;;;4.45;1.92;;;29.60;64.30;;;;;;5094045;28;20031;-77
2021/08/09 08:43:56;;;;;;;7.82;2.85;;;29.80;64.70;;;;;;5094116;28;20663;-77
2021/08/09 08:46:22;;;;;;;3.55;2.13;;;30.40;62.60;;;;;;5112323;28;20034;-75
2021/08/09 08:48:50;;;;;;;9.13;1.95;;;30.60;63.00;;;;;;5094214;28;20043;-75
2021/08/09 08:51:16;;;;;;;8.13;2.60;;;31.10;60.90;;;;;;5094251;28;20047;-75
2021/08/09 08:53:41;;;;;;;4.50;2.15;;;31.10;60.20;;;;;;5094170;28;20051;-76
2021/08/09 08:56:08;;;;;;;4.15;2.00;;;31.20;60.00;;;;;;5112047;28;20487;-75
2021/08/09 08:58:35;;;;;;;4.88;1.95;;;31.60;60.60;;;;;;5112093;28;20595;-75
2021/08/09 09:01:01;;;;;;;6.82;1.70;;;32.10;57.70;;;;;;5093609;28;20019;-76
2021/08/09 09:03:28;;;;;;;5.35;2.03;;;32.30;57.60;;;;;;5093774;28;20051;-74
2021/08/09 09:06:09;;;;;;;3.65;1.67;;;32.50;57.30;;;;;;5093416;28;20027;-75
2021/08/09 09:08:43;;;;;;;5.45;1.98;;;32.60;54.50;;;;;;5111835;28;20031;-75
2021/08/09 09:11:14;;;;;;;4.10;1.65;;;32.70;54.90;;;;;;5111764;28;20369;-75
2021/08/09 09:14:00;;;;;;;5.57;2.22;;;33.00;55.70;;;;;;5093333;28;20415;-75
2021/08/09 09:16:26;;;;;;;4.75;1.67;;;33.50;54.40;;;;;;5111647;28;20028;-76
2021/08/09 09:18:58;;;;;;;6.50;2.10;;;33.60;53.20;;;;;;5093393;28;20032;-75
2021/08/09 09:21:30;;;;;;;4.35;2.35;;;34.00;51.60;;;;;;5093282;28;20031;-75
2021/08/09 09:24:10;;;;;;;4.82;2.03;;;34.10;52.40;;;;;;5111434;28;20118;-74
2021/08/09 09:26:38;;;;;;;5.25;1.77;;;33.80;50.50;;;;;;5111567;28;20019;-75
2021/08/09 09:29:23;;;;;;;3.17;1.80;;;33.50;51.20;;;;;;5111453;28;20030;-76
2021/08/09 09:31:50;;;;;;;4.30;2.15;;;33.10;53.80;;;;;;5111226;28;20020;-76
2021/08/09 09:34:17;;;;;;;5.65;2.30;;;33.30;52.90;;;;;;5111202;28;20047;-75
2021/08/09 09:36:47;;;;;;;5.07;1.95;;;33.70;52.00;;;;;;5093078;28;20019;-75
2021/08/09 09:39:26;;;;;;;5.38;1.70;;;33.90;51.50;;;;;;5111417;28;20051;-75
2021/08/09 09:41:52;;;;;;;6.72;2.30;;;33.50;49.70;;;;;;5092920;28;20042;-76
2021/08/09 09:44:26;;;;;;;7.38;2.97;;;32.80;52.00;;;;;;5092804;28;20032;-75
2021/08/09 09:46:53;;;;;;;4.63;2.00;;;32.50;53.20;;;;;;5111170;28;20116;-75
2021/08/09 09:49:34;;;;;;;3.90;1.67;;;32.40;53.20;;;;;;5111136;28;20499;-75
2021/08/09 09:52:00;;;;;;;3.58;1.80;;;32.30;53.30;;;;;;5111133;28;20035;-74
2021/08/09 09:54:27;;;;;;;3.88;2.13;;;32.30;53.30;;;;;;5092923;28;20027;-75
2021/08/09 09:56:54;;;;;;;8.77;2.42;;;32.50;52.80;;;;;;5110920;28;20065;-75
2021/08/09 09:59:21;;;;;;;5.47;2.80;;;33.00;53.10;;;;;;5111117;28;20380;-75
2021/08/09 10:01:49;;;;;;;8.45;2.30;;;33.50;54.60;;;;;;5092621;28;20031;-75
2021/08/09 10:04:15;;;;;;;3.72;2.08;;;33.60;52.00;;;;;;5092501;28;20411;-76
2021/08/09 10:06:42;;;;;;;5.03;1.90;;;33.90;51.60;;;;;;5110569;28;20057;-74
2021/08/09 10:09:09;;;;;;;5.85;2.28;;;34.20;52.60;;;;;;5092803;28;20438;-75
2021/08/09 10:11:42;;;;;;;3.60;1.88;;;34.30;49.80;;;;;;5110770;28;20514;-76
2021/08/09 10:14:09;;;;;;;8.45;2.33;;;34.00;50.00;;;;;;5110788;28;20012;-75
2021/08/09 10:16:37;;;;;;;6.18;2.22;;;33.60;51.40;;;;;;5110864;28;20031;-75
2021/08/09 10:19:03;;;;;;;7.05;1.77;;;33.40;52.30;;;;;;5092505;28;20111;-76
2021/08/09 10:21:33;;;;;;;4.72;2.38;;;33.10;53.20;;;;;;5092473;28;20032;-76
2021/08/09 10:23:59;;;;;;;5.07;2.75;;;32.90;53.60;;;;;;5091931;28;20574;-77
2021/08/09 10:26:31;;;;;;;3.65;2.50;;;32.50;53.50;;;;;;5110632;28;20439;-78
2021/08/09 10:29:05;;;;;;;5.57;2.38;;;31.90;54.10;;;;;;5092320;28;20110;-77
2021/08/09 10:31:35;;;;;;;4.55;1.95;;;31.40;55.80;;;;;;5110603;28;20484;-77
2021/08/09 10:34:05;;;;;;;4.53;2.40;;;31.20;56.90;;;;;;5091976;28;20606;-76
2021/08/09 10:37:23;;;;;;;6.10;2.83;;;30.90;57.50;;;;;;5092437;28;20034;-74
2021/08/09 10:40:03;;;;;;;4.95;1.92;;;30.90;57.70;;;;;;5065146;28;20054;-74
2021/08/09 10:42:32;;;;;;;8.88;2.22;;;31.10;57.80;;;;;;5092147;28;20054;-75
2021/08/09 10:44:58;;;;;;;3.85;1.88;;;31.00;59.30;;;;;;5092081;28;20384;-75
2021/08/09 10:47:46;;;;;;;8.20;2.15;;;31.00;57.70;;;;;;5110464;28;20027;-75
2021/08/09 10:50:41;;;;;;;8.65;2.20;;;30.80;57.70;;;;;;5110507;28;20106;-75
2021/08/09 10:53:30;;;;;;;4.07;2.03;;;30.70;58.80;;;;;;5056054;28;20027;-75
2021/08/09 10:55:57;;;;;;;5.80;2.42;;;30.80;57.50;;;;;;5078668;28;20032;-75
2021/08/09 10:58:46;;;;;;;4.03;1.92;;;30.60;58.30;;;;;;5110355;28;20035;-75
2021/08/09 11:01:14;;;;;;;4.72;2.05;;;30.40;59.00;;;;;;5078982;28;20058;-75
2021/08/09 11:04:02;;;;;;;3.42;1.83;;;30.30;59.10;;;;;;5092018;28;20050;-75
2021/08/09 11:06:51;;;;;;;4.45;2.03;;;30.20;60.80;;;;;;5092131;28;20077;-75
2021/08/09 11:09:40;;;;;;;5.18;2.05;;;30.20;60.80;;;;;;5092428;28;20035;-75
2021/08/09 11:12:09;;;;;;;9.55;1.92;;;30.20;59.50;;;;;;5110160;28;20034;-75
2021/08/09 11:15:12;;;;;;;4.07;2.05;;;30.20;58.10;;;;;;5092029;28;20023;-75
2021/08/09 11:17:37;;;;;;;7.15;2.33;;;29.70;58.60;;;;;;5110330;28;20031;-77
2021/08/09 11:20:16;;;;;;;5.78;2.35;;;29.10;61.10;;;;;;5091705;28;20028;-77
2021/08/09 11:22:45;;;;;;;7.65;3.15;;;29.00;62.40;;;;;;5091653;28;20438;-77
2021/08/09 11:25:26;;;;;;;3.22;2.10;;;29.00;62.10;;;;;;5091740;28;20039;-77
2021/08/09 11:28:13;;;;;;;6.85;2.13;;;29.00;61.50;;;;;;5091765;28;20479;-77
2021/08/09 11:30:59;;;;;;;8.93;2.20;;;29.10;62.10;;;;;;5111451;28;20045;-77
2021/08/09 11:33:35;;;;;;;;;;;29.10;63.30;;;;;;5095771;28;20507;-77
2021/08/09 11:36:12;;;;;;;5.78;2.38;;;29.10;63.20;;;;;;5113480;28;19908;-77
2021/08/09 11:38:57;;;;;;;4.85;2.55;;;29.30;63.40;;;;;;5095315;28;20030;-77
2021/08/09 11:41:25;;;;;;;4.07;2.40;;;29.40;62.50;;;;;;5107146;28;20027;-77
2021/08/09 11:44:07;;;;;;;4.95;2.08;;;29.50;62.10;;;;;;5113388;28;20040;-78
2021/08/09 11:46:53;;;;;;;3.45;2.13;;;29.70;62.20;;;;;;5095262;28;20076;-76
2021/08/09 11:49:21;;;;;;;6.05;2.63;;;29.80;61.50;;;;;;5112807;28;20050;-76
2021/08/09 11:51:48;;;;;;;6.53;2.53;;;29.80;59.80;;;;;;5095308;28;20028;-77
2021/08/09 11:54:14;;;;;;;5.80;2.38;;;29.80;62.30;;;;;;5113205;28;20048;-78
2021/08/09 11:56:40;;;;;;;5.03;2.10;;;29.90;62.00;;;;;;5113151;28;20521;-77
2021/08/09 11:59:17;;;;;;;4.65;2.55;;;29.90;61.20;;;;;;5113192;28;20020;-75
2021/08/09 12:01:44;;;;;;;6.40;2.08;;;30.00;61.40;;;;;;5095040;28;20399;-75
2021/08/09 12:04:14;;;;;;;3.35;2.13;;;30.00;61.00;;;;;;5094863;28;20380;-75
2021/08/09 12:06:57;;;;;;;4.97;2.10;;;30.00;60.40;;;;;;5094891;28;20031;-75
2021/08/09 12:09:42;;;;;;;5.07;2.22;;;30.00;60.70;;;;;;5113104;28;20024;-75
2021/08/09 12:12:12;;;;;;;6.68;2.17;;;30.10;58.10;;;;;;5104621;28;20038;-75
2021/08/09 12:14:38;;;;;;;4.38;1.95;;;30.10;58.60;;;;;;5094752;28;20016;-75
2021/08/09 12:17:17;;;;;;;6.47;2.85;;;30.10;59.30;;;;;;5094663;28;20027;-75
2021/08/09 12:19:45;;;;;;;4.50;2.10;;;30.20;58.20;;;;;;5094505;28;20032;-74
2021/08/09 12:22:15;;;;;;;4.40;2.10;;;30.10;57.10;;;;;;5094253;28;20059;-75
2021/08/09 12:24:43;;;;;;;3.55;1.98;;;30.00;56.60;;;;;;5112401;28;20102;-75
2021/08/09 12:27:20;;;;;;;3.63;1.80;;;30.00;57.50;;;;;;5104084;28;20047;-75
2021/08/09 12:30:06;;;;;;;2.55;1.60;;;30.20;57.60;;;;;;5094090;28;20020;-76
2021/08/09 12:32:35;;;;;;;6.60;1.80;;;30.20;57.00;;;;;;5094286;28;20456;-77
2021/08/09 12:35:02;;;;;;;3.33;1.80;;;30.20;57.00;;;;;;5112123;28;20687;-76
2021/08/09 12:37:28;;;;;;;3.50;1.60;;;30.20;54.90;;;;;;5093968;28;20484;-76
2021/08/09 12:40:09;;;;;;;2.90;1.63;;;30.10;53.70;;;;;;5093711;28;20050;-76
2021/08/09 12:42:35;;;;;;;3.42;1.90;;;30.20;53.00;;;;;;5093757;28;20024;-76
2021/08/09 12:45:00;;;;;;;4.00;1.80;;;30.20;53.90;;;;;;5093986;28;20050;-77
2021/08/09 12:47:26;;;;;;;2.85;1.60;;;30.20;54.10;;;;;;5112370;28;20434;-76
2021/08/09 12:49:52;;;;;;;4.07;1.70;;;30.10;54.60;;;;;;5092233;28;20028;-78
2021/08/09 12:52:17;;;;;;;3.17;2.10;;;30.00;55.30;;;;;;5093686;28;20037;-78
2021/08/09 12:54:43;;;;;;;3.22;1.70;;;30.00;55.40;;;;;;5093567;28;20124;-78